Flight Track Log - Related Links

Times and Time Zones

All times are in EDT time to prevent confusion due to time zone crossing. See the N885FT flight status page for this flight to view local times or setup timezone preferences in your user account.

Time Position Orientation Groundspeed Altitude Reporting Facility
EDT Latitude Longitude Course Direction KTS MPH feet Rate Location/Type
Sat 10:20:11 PM 26.5628 -81.8325 327° Northwest 122 140 2,700  Level Miami Center
Sat 10:21:12 PM 26.5925 -81.8533 328° Northwest 123 142 3,300 650 Climbing Miami Center
Sat 10:22:11 PM 26.6236 -81.8789 324° Northwest 127 146 4,000 347 Climbing Miami Center
Sat 10:23:00 PM 26.7276 -81.8978 323° Northwest  Level FlightAware Approximate
Sat 10:23:13 PM 26.6586 -81.9064 325° Northwest 154 177 4,000  Level Miami Center
Sat 10:24:00 PM 26.7584 -81.9234 323° Northwest  Level FlightAware Approximate
Sat 10:24:14 PM 26.6944 -81.9397 320° Northwest 167 192 4,000  Level Miami Center
Sat 10:25:14 PM 26.7300 -81.9728 320° Northwest 167 192 3,900  Descending Miami Center
Sat 10:26:15 PM 26.7669 -82.0014 325° Northwest 165 190 4,000 49 Climbing Miami Center
Sat 10:27:16 PM 26.8067 -82.0350 323° Northwest 166 191 4,000  Level Miami Center
Sat 10:28:16 PM 26.8428 -82.0661 322° Northwest 166 191 4,000  Level Miami Center
Sat 10:29:17 PM 26.8811 -82.0939 327° Northwest 166 191 4,000  Level Miami Center
Sat 10:30:18 PM 26.9192 -82.1300 320° Northwest 167 192 4,000 -49 Level Miami Center
Sat 10:31:19 PM 26.9550 -82.1625 321° Northwest 167 192 3,900 -50 Descending Miami Center
Sat 10:32:19 PM 26.9906 -82.1947 321° Northwest 167 192 3,900 -50 Level Miami Center
Sat 10:33:20 PM 27.0217 -82.2222 322° Northwest 167 192 3,800  Descending Miami Center
Sat 10:34:21 PM 27.0639 -82.2614 320° Northwest 166 191 3,900 50 Climbing Miami Center
Sat 10:35:19 PM 27.0978 -82.2969 317° Northwest 166 191 3,900  Level Miami Center
Sat 10:36:22 PM 27.1336 -82.3281 322° Northwest 166 191 3,900 48 Level Miami Center
Sat 10:37:23 PM 27.1706 -82.3592 323° Northwest 166 191 4,000 49 Climbing Miami Center
Sat 10:38:24 PM 27.2067 -82.3883 324° Northwest 165 190 4,000  Level Miami Center
Sat 10:39:00 PM 27.2333 -82.4167 317° Northwest 162 186 4,000 63 Level Tampa TRACON
Sat 10:40:00 PM 27.2667 -82.4500 318° Northwest 162 186 4,100  Climbing Tampa TRACON
Sat 10:41:00 PM 27.2833 -82.4833 299° West 166 191 4,000 -53 Descending Tampa TRACON
Sat 10:41:54 PM 27.3000 -82.5167 299° West 159 183 4,000 -53 Level Tampa TRACON
Sat 10:42:54 PM 27.3333 -82.5667 307° West 165 190 3,900 -250 Descending Tampa TRACON
Sat 10:43:54 PM 27.3667 -82.6167 307° West 174 200 3,500 -457 Descending Tampa TRACON
Sat 10:44:26 PM 27.3731 -82.6267 306° West 167 192 3,200 -505 Descending Miami Center
Sat 10:45:29 PM 27.4069 -82.6669 313° West 172 198 2,700 -341 Descending Miami Center
Sat 10:46:29 PM 27.4417 -82.7047 316° Northwest 172 198 2,500 -99 Descending Miami Center
Sat 10:47:30 PM 27.4767 -82.7408 318° Northwest 172 198 2,500 -149 Level Miami Center
Sat 10:48:30 PM 27.5200 -82.7319 10° North 179 206 2,200 -248 Descending Miami Center
Sat 10:49:31 PM 27.5119 -82.6900 102° East 165 190 2,000 -148 Descending Miami Center
Sat 10:50:32 PM 27.4850 -82.6578 133° Southeast 152 175 1,900 -197 Descending Miami Center
Sat 10:51:33 PM 27.4617 -82.6314 135° Southeast 137 158 1,600 -446 Descending Miami Center
Sat 10:52:33 PM 27.4389 -82.6058 135° Southeast 125 144 1,000 -645 Descending Miami Center
Sat 10:53:34 PM 27.4139 -82.5767 134° Southeast 116 133 300 1,513 Descending Miami Center
Sat 10:54:32 PM 27.3983 -82.5581 133° Southeast 109 125 4,000 65 Climbing Miami Center
Sat 10:55:07 PM 27.3833 -82.5500 155° Southeast 91 105 400 -1,579 Descending Tampa TRACON
Sat 10:56:07 PM 27.4000 -82.5167 61° Northeast 100 115 1,500 1,000 Climbing Tampa TRACON
Sat 10:57:13 PM 27.4167 -82.4833 61° Northeast 119 137 2,500 905 Climbing Tampa TRACON
Sat 10:58:13 PM 27.4333 -82.4667 42° Northeast 118 136 3,400 850 Climbing Tampa TRACON
Sat 10:59:13 PM 27.4500 -82.4500 42° Northeast 110 127 4,200 789 Climbing Tampa TRACON
Sat 11:00:07 PM 27.4667 -82.4167 61° Northeast 108 124 4,900 321 Climbing Tampa TRACON
Sat 11:01:24 PM 27.4839 -82.3689 68° East 140 161 4,900 43 Level Miami Center
Sat 11:02:27 PM 27.4992 -82.3236 69° East 150 173 5,000 48 Climbing Miami Center
Sat 11:03:28 PM 27.5128 -82.2794 71° East 150 173 5,000  Level Miami Center
Sat 11:04:28 PM 27.5281 -82.2342 69° East 153 176 5,000 50 Level Miami Center
Sat 11:05:29 PM 27.5472 -82.1908 63° Northeast 153 176 5,100  Climbing Miami Center
Sat 11:06:29 PM 27.5653 -82.1461 66° East 157 181 5,000 -50 Descending Miami Center
Sat 11:07:30 PM 27.5819 -82.1014 67° East 156 180 5,000  Level Miami Center
Sat 11:08:28 PM 27.6003 -82.0575 65° Northeast 155 178 5,000 50 Level Miami Center
Sat 11:09:31 PM 27.6156 -82.0131 69° East 153 176 5,100  Climbing Miami Center
Sat 11:10:32 PM 27.6331 -81.9589 70° East 154 177 5,000 -50 Descending Miami Center
Sat 11:11:32 PM 27.6506 -81.9158 65° Northeast 154 177 5,000  Level Miami Center
Sat 11:12:32 PM 27.6658 -81.8714 69° East 154 177 5,000 -50 Level Miami Center
Sat 11:13:33 PM 27.6817 -81.8256 69° East 156 180 4,900 -50 Descending Miami Center
Sat 11:14:32 PM 27.6969 -81.7800 69° East 156 180 4,900 50 Level Miami Center
Sat 11:15:34 PM 27.7133 -81.7350 68° East 156 180 5,000 49 Climbing Miami Center
Sat 11:16:35 PM 27.7306 -81.6889 67° East 157 181 5,000  Level Miami Center
Sat 11:17:32 PM 27.7481 -81.6431 67° East 159 183 5,000  Level Miami Center
Sat 11:18:36 PM 27.7647 -81.5961 68° East 160 184 5,000  Level Miami Center
Sat 11:19:33 PM 27.7842 -81.5500 65° Northeast 160 184 5,000  Level Miami Center
Sat 11:20:34 PM 27.7992 -81.5056 69° East 155 178 5,000  Level Miami Center
Sat 11:21:34 PM 27.8119 -81.4658 70° East 136 157 5,000  Level Miami Center
Sat 11:22:34 PM 27.8272 -81.4281 65° Northeast 132 152 5,000  Level Miami Center
Sat 11:23:35 PM 27.8419 -81.3883 67° East 136 157 5,000  Level Miami Center
Sat 11:24:36 PM 27.8558 -81.3472 69° East 137 158 5,000  Level Miami Center
Sat 11:25:37 PM 27.8697 -81.3061 69° East 139 160 5,000  Level Miami Center
Sat 11:26:36 PM 27.8839 -81.2656 68° East 139 160 5,000  Level Miami Center
Sat 11:27:37 PM 27.8972 -81.2250 70° East 139 160 5,000 -49 Level Miami Center
Sat 11:28:38 PM 27.9128 -81.1761 70° East 139 160 4,900 -49 Descending Miami Center
Sat 11:29:39 PM 27.9333 -81.1333 61° Northeast 135 155 4,900 52 Level Orlando TRACON
Sat 11:30:33 PM 27.9500 -81.1000 60° Northeast 135 155 5,000 -50 Climbing Orlando TRACON
Sat 11:31:40 PM 27.9675 -81.0644 61° Northeast 136 157 4,800 -328 Descending Miami Center
Sat 11:32:41 PM 27.9911 -81.0306 52° Northeast 141 162 4,300 -454 Descending Miami Center
Sat 11:33:39 PM 28.0181 -80.9956 49° Northeast 141 162 3,900 -407 Descending Miami Center
Sat 11:34:39 PM 28.0431 -80.9631 49° Northeast 141 162 3,500 -397 Descending Miami Center
Sat 11:35:40 PM 28.0717 -80.9292 46° Northeast 141 162 3,100 -387 Descending Miami Center
Sat 11:36:43 PM 28.0919 -80.8931 58° Northeast 142 163 2,700 -290 Descending Miami Center
Sat 11:37:44 PM 28.0919 -80.8497 90° East 133 153 2,500 -203 Descending Miami Center
Sat 11:38:41 PM 28.0950 -80.8100 85° East 129 148 2,300 -347 Descending Miami Center
Sat 11:39:45 PM 28.1000 -80.7667 83° East 132 152 1,800 -643 Descending Orlando TRACON
Sat 11:40:33 PM 28.1000 -80.7333 90° East 101 116 1,100 -526 Descending Orlando TRACON
Sat 11:41:39 PM 28.1000 -80.7000 90° East 90 104 800 -350 Descending Orlando TRACON
Sat 11:42:33 PM 28.1000 -80.6833 90° East 89 102 400 -444 Descending Orlando TRACON
Sat 11:44:00 PM 28.1028 -80.6453 66° East  Level Estimated
Sat 11:51:00 PM 28.1028 -80.6453 66° East  Level Estimated
Sat 11:52:00 PM 28.1028 -80.6453 105° East  Level Estimated
Sat 11:53:00 PM 28.1028 -80.6453 66° East  Level Estimated

Login

Don't have an account? Register now (free) for customized features, flight alerts, and more!